Hlavní strana
METAR-TAF:

METAR-TAF

Letiště :

Vinnycja, Ukrajina

zeměpisná šířka: 49-14-23N, zeměpisná délka: 028-36-50E, výška: 974 m

Aktuální stav počasí

Zpráva byla vytvořena před 30 hodinami a 6 minutami, v 15:30 UTC
Severoseverozápadní vítr 6 kt
Teplota 25°C
Vlhkost vzduchu 61%
Tlak 1017 hPa
Viditelnost 10 km a více
Skoro jasno ve výšce 4300 ft
Oblačno až skoro zataženo ve výšce 10000 ft

METAR: UKWW 171530Z 34003MPS 9999 FEW043 BKN100 25/17 Q1017 R31/0///65 TEMPO 2100 -TSRAGR SCT005 BKN015CB

Čas: 00:36 (21:36 UTC)

Předpověď počasí

Zpráva byla vytvořena před 28 hodinami a 26 minutami, v 17:10 UTC
Předpověď platná od 20 v 18 UTC do 21 v 03 UTC
vítr z různých směrů 2 kt
Viditelnost 10 km a více
Polojasno ve výšce 3000 ft

TAF: UKWW 201710Z 2018/2103 VRB01MPS 9999 SCT030

Stav a předpovědi počasí z více než 4 000 letišť (zprávy METAR a TAF).

Červené a žluté tečky na mapě představují dostupné meteorologické stanice.

Když kurzor umístíte na tečku, zobrazí se název stanice.

Pak kliknutím zobrazíte stav a předpověď počasí.

Chcete-li změnit mapu, kliknutím na zelené tlačítko se znaménkem +mapu přiblížíte, kliknutím na zelené tlačítko se znaménkem – mapu oddálíte a kliknutím na zelené šipky přejdete na sousední mapy.


METAR-TAF: